createdAt,value
2022-12-20T00:00:23.477Z,80.48
2022-12-20T00:02:50.028Z,80.39
2022-12-20T00:05:16.882Z,80.77
2022-12-20T00:07:43.392Z,80.50
2022-12-20T00:10:09.785Z,80.83
2022-12-20T00:12:37.774Z,80.24
2022-12-20T00:15:04.174Z,80.67
2022-12-20T00:17:31.663Z,80.78
2022-12-20T00:19:59.435Z,81.12
2022-12-20T00:22:26.871Z,81.21
2022-12-20T00:24:53.520Z,81.13
2022-12-20T00:27:20.340Z,80.90
2022-12-20T00:29:49.200Z,81.25
2022-12-20T00:32:15.542Z,81.00
2022-12-20T00:34:43.010Z,81.09
2022-12-20T00:37:10.677Z,81.70
2022-12-20T00:39:37.355Z,81.92
2022-12-20T00:42:06.794Z,81.72
2022-12-20T00:44:33.301Z,81.46
2022-12-20T00:46:59.763Z,81.53
2022-12-20T00:49:33.456Z,80.96
2022-12-20T00:52:00.176Z,80.94
2022-12-20T00:54:27.738Z,80.71
2022-12-20T00:56:54.771Z,81.02
2022-12-20T00:59:21.167Z,81.21
2022-12-20T01:01:50.288Z,81.16
2022-12-20T01:04:20.347Z,80.89
2022-12-20T01:06:47.709Z,80.90
2022-12-20T01:09:14.049Z,80.83
2022-12-20T01:11:40.505Z,80.85
2022-12-20T01:14:09.309Z,80.48
2022-12-20T01:16:35.956Z,80.32
2022-12-20T01:19:02.661Z,80.29
2022-12-20T01:21:29.568Z,80.34
2022-12-20T01:23:56.019Z,80.13
2022-12-20T01:26:22.426Z,80.46
2022-12-20T01:28:49.732Z,80.31
2022-12-20T01:31:16.746Z,80.26
2022-12-20T01:33:46.483Z,80.73
2022-12-20T01:36:14.147Z,80.43
2022-12-20T01:38:43.133Z,80.30
2022-12-20T01:41:12.289Z,80.51
2022-12-20T01:43:39.056Z,80.17
2022-12-20T01:46:06.995Z,80.47
2022-12-20T01:48:33.635Z,80.55
2022-12-20T01:51:00.522Z,80.78
2022-12-20T01:53:34.704Z,80.83
2022-12-20T01:56:12.643Z,81.02
2022-12-20T01:58:39.483Z,80.92
2022-12-20T02:01:06.143Z,80.75
2022-12-20T02:03:34.678Z,80.75
2022-12-20T02:06:01.518Z,80.58
2022-12-20T02:08:30.735Z,80.61
2022-12-20T02:10:57.290Z,80.62
2022-12-20T02:16:03.935Z,80.49
2022-12-20T02:18:30.413Z,80.72
2022-12-20T02:20:56.921Z,80.96
2022-12-20T02:23:24.799Z,80.60
2022-12-20T02:25:51.354Z,80.70
2022-12-20T02:28:18.531Z,80.91
2022-12-20T02:30:49.892Z,80.95
2022-12-20T02:33:16.757Z,80.90
2022-12-20T02:35:43.227Z,80.76
2022-12-20T02:38:10.448Z,80.92
2022-12-20T02:40:39.460Z,80.86
2022-12-20T02:43:06.107Z,80.90
2022-12-20T02:45:36.652Z,80.82
2022-12-20T02:48:03.212Z,80.88
2022-12-20T02:50:29.939Z,80.85
2022-12-20T02:52:56.739Z,80.64
2022-12-20T02:55:23.555Z,80.59
2022-12-20T02:57:54.670Z,81.01
2022-12-20T03:00:24.508Z,80.77
2022-12-20T03:02:51.289Z,80.30
2022-12-20T03:05:17.819Z,80.80
2022-12-20T03:07:44.240Z,80.97
2022-12-20T03:10:11.188Z,81.12
2022-12-20T03:12:38.129Z,81.20
2022-12-20T03:15:04.659Z,81.13
2022-12-20T03:17:31.320Z,81.12
2022-12-20T03:19:59.567Z,81.12
2022-12-20T03:22:25.937Z,80.61
2022-12-20T03:24:52.758Z,80.73
2022-12-20T03:27:21.417Z,80.47
2022-12-20T03:29:47.846Z,80.72
2022-12-20T03:32:14.424Z,80.88
2022-12-20T03:34:41.070Z,80.39
2022-12-20T03:37:07.419Z,80.28
2022-12-20T03:39:34.015Z,80.90
2022-12-20T03:42:00.483Z,80.44
2022-12-20T03:44:27.264Z,80.60
2022-12-20T03:46:53.671Z,80.38
2022-12-20T03:49:27.561Z,80.46
2022-12-20T03:51:54.537Z,80.50
2022-12-20T03:54:21.006Z,80.62
2022-12-20T03:56:47.478Z,80.81
2022-12-20T03:59:13.827Z,80.75
2022-12-20T04:01:40.309Z,80.50
2022-12-20T04:04:06.782Z,80.28
2022-12-20T04:06:33.159Z,80.39
2022-12-20T04:09:00.593Z,80.15
2022-12-20T04:11:34.353Z,80.36
2022-12-20T04:14:02.999Z,80.53
2022-12-20T04:16:29.438Z,80.95
2022-12-20T04:18:56.106Z,80.59
2022-12-20T04:21:23.497Z,80.14
2022-12-20T04:23:50.235Z,80.00
2022-12-20T04:26:16.677Z,80.39
2022-12-20T04:28:43.261Z,80.50
2022-12-20T04:31:12.166Z,80.57
2022-12-20T04:33:38.913Z,80.87
2022-12-20T04:36:07.324Z,80.21
2022-12-20T04:38:33.675Z,80.55
2022-12-20T04:41:01.304Z,80.39
2022-12-20T04:43:27.692Z,80.27
2022-12-20T04:45:56.412Z,80.32
2022-12-20T04:48:55.155Z,80.60
2022-12-20T04:51:09.188Z,81.02
2022-12-20T04:53:35.938Z,81.19
2022-12-20T04:56:02.342Z,81.09
2022-12-20T04:58:28.852Z,80.36
2022-12-20T05:00:55.462Z,80.50
2022-12-20T05:03:22.742Z,80.56
2022-12-20T05:05:49.270Z,80.20
2022-12-20T05:08:15.756Z,80.10
2022-12-20T05:10:42.095Z,80.66
2022-12-20T05:13:09.512Z,80.37
2022-12-20T05:15:36.090Z,80.41
2022-12-20T05:18:03.836Z,80.57
2022-12-20T05:20:31.551Z,80.54
2022-12-20T05:22:57.913Z,80.53
2022-12-20T05:25:31.579Z,80.38
2022-12-20T05:28:00.308Z,80.50
2022-12-20T05:30:26.745Z,80.36
2022-12-20T05:32:53.462Z,80.21
2022-12-20T05:35:19.973Z,80.06
2022-12-20T05:37:46.863Z,80.00
2022-12-20T05:40:13.259Z,79.83
2022-12-20T05:42:42.377Z,80.37
2022-12-20T05:45:13.369Z,80.60
2022-12-20T05:47:47.035Z,80.41
2022-12-20T05:50:18.600Z,80.79
2022-12-20T05:52:46.706Z,80.60
2022-12-20T05:55:14.544Z,80.53
2022-12-20T05:57:44.234Z,80.59
2022-12-20T06:00:10.587Z,80.84
2022-12-20T06:02:39.819Z,81.11
2022-12-20T06:05:08.722Z,80.42
2022-12-20T06:07:35.544Z,80.39
2022-12-20T06:10:02.185Z,80.56
2022-12-20T06:12:28.640Z,80.48
2022-12-20T06:14:56.492Z,80.37
2022-12-20T06:20:03.460Z,80.46
2022-12-20T06:22:29.989Z,80.62
2022-12-20T06:25:00.850Z,80.51
2022-12-20T06:27:28.240Z,80.70
2022-12-20T06:29:54.717Z,80.09
2022-12-20T06:32:23.506Z,80.15
2022-12-20T06:34:50.894Z,79.81
2022-12-20T06:37:17.600Z,80.03
2022-12-20T06:39:45.335Z,80.13
2022-12-20T06:42:11.889Z,80.34
2022-12-20T06:44:38.452Z,80.41
2022-12-20T06:47:04.961Z,80.13
2022-12-20T06:49:33.714Z,80.17
2022-12-20T06:52:00.728Z,80.28
2022-12-20T06:54:27.464Z,80.35
2022-12-20T06:56:54.651Z,80.59
2022-12-20T06:59:21.049Z,80.70
2022-12-20T07:01:48.812Z,80.53
2022-12-20T07:04:22.335Z,80.33
2022-12-20T07:06:48.664Z,80.24
2022-12-20T07:09:16.231Z,80.31
2022-12-20T07:11:42.939Z,80.27
2022-12-20T07:14:10.465Z,80.47
2022-12-20T07:16:36.951Z,80.49
2022-12-20T07:19:05.943Z,80.47
2022-12-20T07:21:32.288Z,80.19
2022-12-20T07:23:59.066Z,80.19
2022-12-20T07:26:31.448Z,80.01
2022-12-20T07:28:58.899Z,80.42
2022-12-20T07:31:26.399Z,80.19
2022-12-20T07:33:52.837Z,79.38
2022-12-20T07:36:19.926Z,80.01
2022-12-20T07:38:46.310Z,80.47
2022-12-20T07:41:12.913Z,80.18
2022-12-20T07:43:39.281Z,80.25
2022-12-20T07:46:05.718Z,79.79
2022-12-20T07:48:32.189Z,79.60
2022-12-20T07:50:58.573Z,79.72
2022-12-20T07:53:25.028Z,79.64
2022-12-20T07:55:51.387Z,79.74
2022-12-20T07:58:17.807Z,79.51
2022-12-20T08:00:45.496Z,79.29
2022-12-20T08:03:11.977Z,79.21
2022-12-20T08:05:39.151Z,79.66
2022-12-20T08:08:05.562Z,78.94
2022-12-20T08:10:31.904Z,78.31
2022-12-20T08:12:58.619Z,78.68
2022-12-20T08:15:24.957Z,78.62
2022-12-20T08:17:51.865Z,78.97
2022-12-20T08:20:18.461Z,79.35
2022-12-20T08:22:44.877Z,79.51
2022-12-20T08:25:12.579Z,79.53
2022-12-20T08:27:38.971Z,79.07
2022-12-20T08:30:05.419Z,78.11
2022-12-20T08:32:31.854Z,77.59
2022-12-20T08:34:58.594Z,78.16
2022-12-20T08:37:27.623Z,77.84
2022-12-20T08:39:55.901Z,78.34
2022-12-20T08:42:22.293Z,78.30
2022-12-20T08:44:49.852Z,78.16
2022-12-20T08:47:16.233Z,77.56
2022-12-20T08:49:47.350Z,77.82
2022-12-20T08:52:14.287Z,78.16
2022-12-20T08:54:42.683Z,78.12
2022-12-20T08:57:11.396Z,78.06
2022-12-20T08:59:37.768Z,78.13
2022-12-20T09:02:04.567Z,78.37
2022-12-20T09:04:31.021Z,77.84
2022-12-20T09:06:57.472Z,76.44
2022-12-20T09:09:24.233Z,76.67
2022-12-20T09:11:50.623Z,76.51
2022-12-20T09:14:17.079Z,76.52
2022-12-20T09:16:43.652Z,76.44
2022-12-20T09:19:10.055Z,77.51
2022-12-20T09:21:36.440Z,77.40
2022-12-20T09:24:02.805Z,77.69
2022-12-20T09:26:29.183Z,77.91
2022-12-20T09:28:57.904Z,77.24
2022-12-20T09:31:24.678Z,76.25
2022-12-20T09:33:51.528Z,75.87
2022-12-20T09:36:18.083Z,76.29
2022-12-20T09:38:47.048Z,76.01
2022-12-20T09:41:19.264Z,76.40
2022-12-20T09:43:49.056Z,75.99
2022-12-20T09:46:18.652Z,77.17
2022-12-20T09:48:45.579Z,79.57
2022-12-20T09:51:12.981Z,78.96
2022-12-20T09:53:39.612Z,78.05
2022-12-20T09:56:06.088Z,78.49
2022-12-20T09:58:33.806Z,78.42
2022-12-20T10:01:00.169Z,79.42
2022-12-20T10:03:30.740Z,78.58
2022-12-20T10:05:57.451Z,78.43
2022-12-20T10:08:26.365Z,77.94
2022-12-20T10:10:52.732Z,76.95
2022-12-20T10:13:19.071Z,76.80
2022-12-20T10:15:48.438Z,76.51
2022-12-20T10:18:17.671Z,76.44
2022-12-20T10:20:44.108Z,75.53
2022-12-20T10:23:10.587Z,75.33
2022-12-20T10:25:37.993Z,74.07
2022-12-20T10:28:04.584Z,73.45
2022-12-20T10:30:30.935Z,73.40
2022-12-20T10:33:01.011Z,72.80
2022-12-20T10:35:29.463Z,72.20
2022-12-20T10:38:07.101Z,72.87
2022-12-20T10:41:09.960Z,72.85
2022-12-20T10:43:21.163Z,73.24
2022-12-20T10:45:47.489Z,72.08
2022-12-20T10:48:14.272Z,72.35
2022-12-20T10:50:42.063Z,72.91
2022-12-20T10:53:08.490Z,73.02
2022-12-20T10:55:35.300Z,72.51
2022-12-20T10:58:04.210Z,72.50
2022-12-20T11:00:31.085Z,71.93
2022-12-20T11:02:57.850Z,72.14
2022-12-20T11:05:25.560Z,72.48
2022-12-20T11:08:24.629Z,71.50
2022-12-20T11:10:41.860Z,71.15
2022-12-20T11:13:09.266Z,70.85
2022-12-20T11:15:38.508Z,70.07
2022-12-20T11:18:05.583Z,69.26
2022-12-20T11:20:32.620Z,69.44
2022-12-20T11:22:59.054Z,69.24
2022-12-20T11:25:25.419Z,68.34
2022-12-20T11:27:51.939Z,66.25
2022-12-20T11:30:18.555Z,64.74
2022-12-20T11:32:48.835Z,66.55
2022-12-20T11:35:15.633Z,66.22
2022-12-20T11:37:41.994Z,66.35
2022-12-20T11:40:08.493Z,67.03
2022-12-20T11:42:34.915Z,65.73
2022-12-20T11:45:08.741Z,65.60
2022-12-20T11:47:38.122Z,63.40
2022-12-20T11:50:07.224Z,65.52
2022-12-20T11:52:33.913Z,64.96
2022-12-20T11:55:03.163Z,66.04
2022-12-20T11:57:48.098Z,65.95
2022-12-20T12:00:18.385Z,65.52
2022-12-20T12:02:44.980Z,65.94
2022-12-20T12:05:11.676Z,65.98
2022-12-20T12:07:38.138Z,65.71
2022-12-20T12:10:07.016Z,64.69
2022-12-20T12:12:36.800Z,65.30
2022-12-20T12:15:03.167Z,64.61
2022-12-20T12:17:29.559Z,64.39
2022-12-20T12:19:55.928Z,63.07
2022-12-20T12:22:27.003Z,65.11
2022-12-20T12:24:53.388Z,64.81
2022-12-20T12:27:19.745Z,65.47
2022-12-20T12:29:46.163Z,66.10
2022-12-20T12:32:12.856Z,64.75
2022-12-20T12:34:39.293Z,65.48
2022-12-20T12:37:05.663Z,65.66
2022-12-20T12:39:32.128Z,66.66
2022-12-20T12:41:58.523Z,67.34
2022-12-20T12:44:25.624Z,66.88
2022-12-20T12:46:51.981Z,66.55
2022-12-20T12:49:18.337Z,66.62
2022-12-20T12:51:44.766Z,65.58
2022-12-20T12:54:11.358Z,66.40
2022-12-20T12:56:46.520Z,67.14
2022-12-20T12:59:13.193Z,67.16
2022-12-20T13:01:47.092Z,66.55
2022-12-20T13:04:13.748Z,65.54
2022-12-20T13:06:42.633Z,65.14
2022-12-20T13:09:09.143Z,65.64
2022-12-20T13:11:35.664Z,64.13
2022-12-20T13:14:02.241Z,65.17
2022-12-20T13:16:48.822Z,64.25
2022-12-20T13:19:14.902Z,64.50
2022-12-20T13:21:41.300Z,65.28
2022-12-20T13:24:07.697Z,64.45
2022-12-20T13:26:34.140Z,64.50
2022-12-20T13:29:00.652Z,64.89
2022-12-20T13:31:29.373Z,66.24
2022-12-20T13:33:55.806Z,66.30
2022-12-20T13:36:22.317Z,65.82
2022-12-20T13:38:48.858Z,65.35
2022-12-20T13:41:15.241Z,66.36
2022-12-20T13:43:41.964Z,67.50
2022-12-20T13:46:09.414Z,66.65
2022-12-20T13:48:35.893Z,66.72
2022-12-20T13:51:02.528Z,66.78
2022-12-20T13:53:29.002Z,67.23
2022-12-20T13:55:55.528Z,66.81
2022-12-20T13:58:21.897Z,66.99
2022-12-20T14:00:48.329Z,66.99
2022-12-20T14:03:14.927Z,66.78
2022-12-20T14:05:41.881Z,66.07
2022-12-20T14:08:08.447Z,65.96
2022-12-20T14:10:35.025Z,66.48
2022-12-20T14:13:01.595Z,66.27
2022-12-20T14:15:28.043Z,66.30
2022-12-20T14:17:54.433Z,66.79
2022-12-20T14:20:20.886Z,66.76
2022-12-20T14:22:47.337Z,67.04
2022-12-20T14:25:14.740Z,67.01
2022-12-20T14:27:41.086Z,67.68
2022-12-20T14:30:07.651Z,67.47
2022-12-20T14:32:34.007Z,67.28
2022-12-20T14:35:08.989Z,67.93
2022-12-20T14:37:35.697Z,67.88
2022-12-20T14:40:03.094Z,67.99
2022-12-20T14:42:30.011Z,68.22
2022-12-20T14:44:57.659Z,68.40
2022-12-20T14:47:24.263Z,68.32
2022-12-20T14:49:50.658Z,68.63
2022-12-20T14:52:17.330Z,68.64
2022-12-20T14:57:30.908Z,68.84
2022-12-20T14:59:57.547Z,68.80
2022-12-20T15:02:24.752Z,69.12
2022-12-20T15:04:51.644Z,69.65
2022-12-20T15:09:58.466Z,69.75
2022-12-20T15:12:24.912Z,69.96
2022-12-20T15:14:52.080Z,70.06
2022-12-20T15:17:18.655Z,69.72
2022-12-20T15:19:45.041Z,69.63
2022-12-20T15:22:14.151Z,69.74
2022-12-20T15:24:41.383Z,69.18
2022-12-20T15:27:11.040Z,69.45
2022-12-20T15:29:37.831Z,69.72
2022-12-20T15:32:04.808Z,69.66
2022-12-20T15:34:31.353Z,69.61
2022-12-20T15:36:59.220Z,69.89
2022-12-20T15:39:25.908Z,70.13
2022-12-20T15:41:52.724Z,70.75
2022-12-20T15:44:19.139Z,70.82
2022-12-20T15:46:45.890Z,71.07
2022-12-20T15:49:12.356Z,71.17
2022-12-20T15:51:39.121Z,71.25
2022-12-20T15:54:06.167Z,71.44
2022-12-20T15:56:34.436Z,71.87
2022-12-20T15:59:24.476Z,71.74
2022-12-20T16:01:50.183Z,71.75
2022-12-20T16:04:16.752Z,71.90
2022-12-20T16:06:43.307Z,71.54
2022-12-20T16:09:09.730Z,71.59
2022-12-20T16:11:36.135Z,71.45
2022-12-20T16:14:02.631Z,71.43
2022-12-20T16:16:29.008Z,71.79
2022-12-20T16:19:01.366Z,72.28
2022-12-20T16:21:37.943Z,72.54
2022-12-20T16:24:04.396Z,72.41
2022-12-20T16:26:31.136Z,72.32
2022-12-20T16:28:57.635Z,72.76
2022-12-20T16:31:24.637Z,73.01
2022-12-20T16:33:51.047Z,72.88
2022-12-20T16:36:17.558Z,72.98
2022-12-20T16:38:44.280Z,72.70
2022-12-20T16:41:11.472Z,73.05
2022-12-20T16:43:39.100Z,73.08
2022-12-20T16:46:06.094Z,73.30
2022-12-20T16:48:33.531Z,73.48
2022-12-20T16:51:00.917Z,73.56
2022-12-20T16:53:31.621Z,73.17
2022-12-20T16:56:10.024Z,73.27
2022-12-20T16:59:16.736Z,73.46
2022-12-20T17:01:22.978Z,73.77
2022-12-20T17:03:50.929Z,73.46
2022-12-20T17:06:17.317Z,73.14
2022-12-20T17:11:28.165Z,73.36
2022-12-20T17:13:55.572Z,73.27
2022-12-20T17:16:22.177Z,73.42
2022-12-20T17:18:49.192Z,73.27
2022-12-20T17:21:17.996Z,73.43
2022-12-20T17:23:44.411Z,73.48
2022-12-20T17:26:10.976Z,73.85
2022-12-20T17:28:37.514Z,73.72
2022-12-20T17:31:07.998Z,74.19
2022-12-20T17:33:35.240Z,73.86
2022-12-20T17:36:02.077Z,74.31
2022-12-20T17:38:29.116Z,74.51
2022-12-20T17:41:06.999Z,74.64
2022-12-20T17:43:33.404Z,74.75
2022-12-20T17:45:59.846Z,74.90
2022-12-20T17:48:32.716Z,74.58
2022-12-20T17:51:00.666Z,74.23
2022-12-20T17:53:27.338Z,74.13
2022-12-20T17:55:54.726Z,74.22
2022-12-20T17:58:21.333Z,74.12
2022-12-20T18:00:48.448Z,74.11
2022-12-20T18:03:45.023Z,74.05
2022-12-20T18:06:07.777Z,74.33
2022-12-20T18:08:35.128Z,75.06
2022-12-20T18:11:01.878Z,75.16
2022-12-20T18:13:31.446Z,74.82
2022-12-20T18:16:05.118Z,75.00
2022-12-20T18:18:36.690Z,75.23
2022-12-20T18:21:04.494Z,75.45
2022-12-20T18:23:31.911Z,75.36
2022-12-20T18:25:58.252Z,75.85
2022-12-20T18:28:24.586Z,75.58
2022-12-20T18:30:50.967Z,75.80
2022-12-20T18:33:17.513Z,75.83
2022-12-20T18:35:46.085Z,76.12
2022-12-20T18:38:12.755Z,75.73
2022-12-20T18:40:39.463Z,75.57
2022-12-20T18:43:06.588Z,75.54
2022-12-20T18:45:33.347Z,75.04
2022-12-20T18:48:01.831Z,75.49
2022-12-20T18:50:28.236Z,75.80
2022-12-20T18:53:01.303Z,75.43
2022-12-20T18:55:28.352Z,75.74
2022-12-20T18:57:54.713Z,75.68
2022-12-20T19:00:21.238Z,75.62
2022-12-20T19:54:05.387Z,76.21
2022-12-20T19:56:34.618Z,76.03
2022-12-20T19:59:01.661Z,76.04
2022-12-20T20:01:28.277Z,76.15
2022-12-20T20:03:56.187Z,76.33
2022-12-20T20:06:23.643Z,76.05
2022-12-20T20:08:51.010Z,76.04
2022-12-20T20:11:18.482Z,76.32
2022-12-20T20:13:44.875Z,76.63
2022-12-20T20:16:13.328Z,76.23
2022-12-20T20:18:41.842Z,76.33
2022-12-20T20:21:08.239Z,76.27
2022-12-20T20:23:34.833Z,76.13
2022-12-20T20:26:01.316Z,76.04
2022-12-20T20:28:32.275Z,76.71
2022-12-20T20:31:00.072Z,76.46
2022-12-20T20:33:26.613Z,76.51
2022-12-20T20:36:00.405Z,76.31
2022-12-20T20:38:26.804Z,76.23
2022-12-20T20:40:57.393Z,76.11
2022-12-20T20:43:26.440Z,76.02
2022-12-20T20:45:52.846Z,75.75
2022-12-20T20:48:19.246Z,75.98
2022-12-20T20:50:46.655Z,75.73
2022-12-20T20:53:13.404Z,75.63
2022-12-20T20:55:42.080Z,76.15
2022-12-20T20:58:09.513Z,75.96
2022-12-20T21:00:36.140Z,75.74
2022-12-20T21:03:02.752Z,75.29
2022-12-20T21:08:17.043Z,74.58
2022-12-20T21:10:44.473Z,74.40
2022-12-20T21:13:13.492Z,74.17
2022-12-20T21:15:39.911Z,72.54
2022-12-20T21:18:06.273Z,71.42
2022-12-20T21:20:35.756Z,69.76
2022-12-20T21:23:02.261Z,68.63
2022-12-20T21:25:28.661Z,65.77
2022-12-20T21:27:55.301Z,65.75
2022-12-20T21:30:21.769Z,65.07
2022-12-20T21:32:48.335Z,65.27
2022-12-20T21:35:14.814Z,64.61
2022-12-20T21:37:41.389Z,65.57
2022-12-20T21:40:08.397Z,64.23
2022-12-20T21:42:34.994Z,65.61
2022-12-20T21:45:01.908Z,66.16
2022-12-20T21:47:30.607Z,66.66
2022-12-20T21:49:57.012Z,66.64
2022-12-20T21:52:23.443Z,66.65
2022-12-20T21:54:50.153Z,66.99
2022-12-20T21:57:16.867Z,66.84
2022-12-20T21:59:43.628Z,66.76
2022-12-20T22:02:11.348Z,66.25
2022-12-20T22:04:38.331Z,66.93
2022-12-20T22:07:05.199Z,67.53
2022-12-20T22:09:31.531Z,67.19
2022-12-20T22:11:58.241Z,67.09
2022-12-20T22:14:25.022Z,67.46
2022-12-20T22:16:53.882Z,66.54
2022-12-20T22:19:21.418Z,66.85
2022-12-20T22:21:52.354Z,66.33
2022-12-20T22:24:24.361Z,65.07
2022-12-20T22:26:50.896Z,63.60
2022-12-20T22:29:17.350Z,61.99
2022-12-20T22:31:44.237Z,61.50
2022-12-20T22:34:11.996Z,60.17
2022-12-20T22:36:41.823Z,58.85
2022-12-20T22:39:08.757Z,57.89
2022-12-20T22:41:35.860Z,58.01
2022-12-20T22:44:02.637Z,57.44
2022-12-20T22:49:13.220Z,56.16
2022-12-20T22:51:40.208Z,55.85
2022-12-20T22:54:09.328Z,56.31
2022-12-20T22:56:35.650Z,55.15
2022-12-20T22:59:04.485Z,54.70
2022-12-20T23:01:31.258Z,55.38
2022-12-20T23:03:58.066Z,54.52
2022-12-20T23:06:24.484Z,54.47
2022-12-20T23:08:52.176Z,53.91
2022-12-20T23:11:20.975Z,54.43
2022-12-20T23:13:48.319Z,54.16
2022-12-20T23:16:15.694Z,53.99
2022-12-20T23:18:42.052Z,54.48
2022-12-20T23:21:09.043Z,54.89
2022-12-20T23:23:35.386Z,53.74
2022-12-20T23:26:02.891Z,53.47
2022-12-20T23:28:29.188Z,54.95
2022-12-20T23:30:55.757Z,54.41
2022-12-20T23:33:23.054Z,53.77
2022-12-20T23:35:49.710Z,52.88
2022-12-20T23:38:16.611Z,52.78
2022-12-20T23:40:42.953Z,52.92
2022-12-20T23:43:10.093Z,52.96
2022-12-20T23:45:36.477Z,52.75
2022-12-20T23:48:03.090Z,52.77
2022-12-20T23:50:30.440Z,53.36
2022-12-20T23:52:56.804Z,53.81
2022-12-20T23:55:23.143Z,53.94
2022-12-20T23:57:49.627Z,53.54
